Terminal Aerodrome Forecast
Issued by NWS

Home | Current Version | Previous Version | Text Only | Print | Product List | Glossary On
Versions: 1 2 3 4 5 6 7 8 9 10 11 12 13 14 15 16 17 18
629
FTUS41 KPBZ 212322
TAFAGC
TAF
KAGC 212322Z 2200/2224 21005KT P6SM BKN250
     FM221300 20008KT P6SM SCT250
     FM221900 23012G20KT P6SM -SHRA VCTS BKN070CB
     FM222200 23010KT 5SM -SHRA VCTS OVC040CB=

USA.gov is the U.S. government's official web portal to all federal, state and local government web resources and services.